航空気象通報

ウインドサーファーのための航空気象通報による風予報です。

2/27-2/28の航空気象通報(国内、海外)

2011年02月27日 21時51分29秒 | TAF

羽田空港
TAF RJTT 270842Z 2709/2812 22010KT 9999 FEW020 SCT030 BKN040
      BECMG 2711/2713 04012KT
      BECMG 2721/2724 4000 -RA BR FEW006 BKN009 BKN015
      TEMPO 2800/2806 3000 SHRA BR FEW006 BKN007
      BECMG 2806/2809 02022KT 8000 NSW FEW008 BKN015 BKN020
日本時間27日18-20時:220度から10ノットの風
20-22時:風が変化
22時-28日15時:040度から12ノットの風
15-18時:風が変化
18-21時:020度から22ノットの風
、28日06-09時の後、
15-18時の後、

富士山静岡空港
TAF RJNS 270840Z 2709/2812 24010KT 9999 FEW010 BKN030
      BECMG 2714/2716 4000 -SHRA BR BKN009 BKN012
      TEMPO 2718/2803 2500 SHRA BR BKN005 BKN008
      BECMG 2806/2809 05008KT 9999 NSW FEW020 BKN050
日本時間27日18時-28日15時:240度から10ノットの風
15-18時:風が変化
18-21時:050度から8ノットの風
、27日23時-28日01時の後、
15-18時の後、

那覇空港
TAF ROAH 270843Z 2709/2812 17008KT 9999 FEW015 SCT045
      TEMPO 2709/2711 3000 SHRA
      BECMG 2806/2809 01010KT
日本時間27日18時-28日15時:170度から8ノットの風
15-18時:風が変化
18-21時:010度から10ノットの風

但し、27日18-20時の間:一時、

マウイのカフルイ空港
TAF PHOG 271127Z 2712/2812 VRB05KT P6SM FEW060
     FM272000 04012KT P6SM FEW030 SCT060
     FM280700 VRB05KT P6SM FEW060
ハワイ時間27日02-10時:風向不定5ノットの風
10-21時:040度から12ノットの風
21時-28日02時:風向不定5ノットの風

サイパン空港
TAF PGSN 271134Z 2712/2812 07019G27KT P6SM VCSH SCT025
マリアナ時間26日22時-27日21時:070度から19ノット、突風27ノット

コメント

2/26-2/27の航空気象通報(国内、海外)

2011年02月26日 22時05分11秒 | TAF

羽田空港
TAF RJTT 260838Z 2609/2712 14008KT 9999 FEW030
      BECMG 2615/2617 27004KT
      BECMG 2621/2624 20016KT
      TEMPO 2700/2706 20018G30KT
      BECMG 2709/2712 02010KT
日本時間26日18-24時:140度から8ノットの風
27日00-02時:風が変化
02-06時:270度から4ノットの風
06-09時:風が変化
09-18時:200度から16ノットの風
但し、09-15時の間:一時、200度から18ノット、突風30ノット
18-21時:風が変化
21時:020度から10ノットの風

富士山静岡空港
TAF RJNS 260838Z 2609/2712 19006KT 9999 FEW020 SCT040
      BECMG 2610/2612 30006KT
      BECMG 2700/2703 24010KT
日本時間26日18-19時:190度から6ノットの風
19-21時:風が変化
21時-27日09時:300度から6ノットの風
09-12時:風が変化
12-21時:240度から10ノットの風

那覇空港
TAF AMD ROAH 261237Z 2612/2712 11008KT 9999 FEW015 BKN030
      TEMPO 2612/2615 3000 SHRA
日本時間26日18時-27日21時:110度から8ノットの風

但し、26日21-24時の間:一時、

マウイのカフルイ空港
TAF PHOG 261126Z 2612/2712 VRB05KT P6SM FEW050 BKN100
     FM262000 03010KT P6SM SCT050
     FM270600 VRB05KT P6SM FEW050
ハワイ時間26日02-10時:風向不定5ノットの風

10-20時:030度から10ノットの風
20時-27日02時:風向不定5ノットの風

サイパン空港
TAF PGSN 261125Z 2612/2712 06014G20KT P6SM VCSH SCT020 BKN100
     FM262300 06020G26KT P6SM VCSH SCT020 SCT100
マリアナ時間26日22時-27日09時:060度から14ノット、突風20ノット

09-22時:060度から20ノット、突風26ノット

コメント

2/25-2/26の航空気象通報(国内、海外)

2011年02月25日 22時43分46秒 | TAF

羽田空港
TAF RJTT 250837Z 2509/2612 23020KT 9999 FEW030
      BECMG 2509/2510 34020KT
      TEMPO 2510/2518 34026G38KT
      BECMG 2600/2603 04010KT
      BECMG 2603/2606 08008KT
日本時間25日18時:230度から20ノットの風
18-19時:風が変化
19-26日09時:340度から20ノット
但し、25日19時-26日03時の間:一時、340度から26ノット、突風38ノット
09-12時:風が変化
12時:040度から10ノットの風
12-15時:風が変化
15-21時:080度から8ノットの風

富士山静岡空港
TAF RJNS 250838Z 2509/2612 27018KT 9999 FEW030
      TEMPO 2509/2512 27022G32KT
      BECMG 2521/2524 14006KT
      BECMG 2609/2612 30004KT
日本時間25日18時-26日06時:270度から18ノットの風
但し、25日18-21時の間:一時、270度から22ノット、突風32ノット
26日06-09時:風が変化
09-18時:140度から6ノットの風
18-21時:風が変化
21時:300度から4ノットの風

那覇空港
TAF ROAH 250849Z 2509/2612 04010KT 9999 FC FEW025 SCT030CB
      BECMG 2510/2511 NSW SCT025
      BECMG 2521/2524 10013KT
日本時間25日18時-26日06時:040度から10ノットの風
06-09時:風が変化
09-21時:100度から13ノットの風

マウイのカフルイ空港
TAF PHOG 251120Z 2512/2612 15005KT P6SM FEW050 BKN250
     FM252200 01011KT P6SM SCT050 SCT250
     FM260400 15005KT P6SM FEW050
ハワイ時間25日02-12時:150度から5ノットの風

12-18時:010度から11ノットの風
18時-26日02時:150度から5ノットの風

サイパン空港
TAF PGSN 251135Z 2512/2612 06016G22KT P6SM VCSH SCT025 SCT050
     FM252300 06022G28KT P6SM VCSH SCT020 SCT050
マリアナ時間25日22時-26日09時:060度から16ノット、突風22ノット
09-22時:060度から22ノット、突風28ノット

コメント

2/24-2/25の航空気象通報(国内、海外)

2011年02月24日 23時24分17秒 | TAF

羽田空港
TAF RJTT 240844Z 2409/2512 18008KT 9999 FEW020 BKN040
      TEMPO 2412/2415 19015G25KT
      BECMG 2500/2503 20018KT
      TEMPO 2500/2506 20022G32KT
      BECMG 2506/2509 34016KT
日本時間24日18時-25日09時:180度から8ノットの風
但し、24日21-24時の間:一時、190度から15ノット、突風25ノット
25日09-12時:風が変化
12-15時:200度から18ノットの風
15-18時:風が変化
18-21時:340度から16ノットの風

富士山静岡空港
TAF RJNS 240848Z 2409/2512 30004KT 9999 FEW005 SCT010 BKN030
      BECMG 2500/2503 27016KT
      TEMPO 2506/2512 27022G32KT
日本時間24日18時-25日09時:300度から4ノットの風
09-12時:風が変化
12-21時:270度から16ノットの風
但し、25日15-21時の間:一時、270度から22ノット、突風32ノット

那覇空港
TAF ROAH 240841Z 2409/2512 03009KT 9999 FEW025
日本時間24日18時-25日21時:030度から9ノットの風

マウイのカフルイ空港
TAF AMD PHOG 241414Z 2414/2512 30010KT P6SM -RA SCT012 BKN025
      TEMPO 2414/2415 30010G20KT 1SM +RA BR BKN012
     FM241700 VRB05KT P6SM VCSH SCT012 BKN035
     FM242100 05008KT P6SM VCSH SCT020 BKN050
     FM250600 VRB05KT P6SM SCT020 SCT050
ハワイ時間24日02-07時:300度から10ノットの風

但し、24日04-05時の間:一時、300度から10ノット、突風20ノット
07-11時:風向不定5ノットの風
11-20時:050度から8ノットの風

20時-25日02時:風向不定5ノットの風

サイパン空港
TAF PGSN 241124Z 2412/2512 04014G20KT P6SM VCSH SCT020 BKN060
マリアナ時間24日22時-25日22時:040度から14ノット、突風20ノット

コメント

2/22-2/23の航空気象通報(国内、海外)

2011年02月22日 23時40分06秒 | TAF

羽田空港
TAF RJTT 220839Z 2209/2312 02012KT 9999 FEW030
      BECMG 2303/2306 08010KT
日本時間22日18時-23日12時:020度から12ノットの風
12-15時:風が変化
12-21時:080度から10ノットの風

富士山静岡空港
TAF RJNS 220841Z 2209/2312 30005KT 9999 FEW030
      BECMG 2300/2303 08006KT
      BECMG 2309/2312 35004KT
日本時間22日18時-23日09時:300度から5ノットの風
09-12時:風が変化
12-18時:080度から6ノットの風
18-21時:風が変化
21時:350度から4ノットの風

那覇空港
TAF ROAH 220842Z 2209/2312 02014KT 9999 FEW030 SCT045
      BECMG 2216/2218 08003KT
      BECMG 2221/2224 12006KT
日本時間22日18時-23日01時:020度から14ノットの風
01-03時:風が変化
03-06時:080度から3ノットの風
06-09時:風が変化
09-21時:120度から6ノットの風

マウイのカフルイ空港
TAF PHOG 221120Z 2212/2312 12005KT P6SM FEW040 BKN060
     FM222000 04010KT P6SM FEW025 BKN050
     FM230600 VRB05KT P6SM SCT025 BKN060
ハワイ時間22日02-10時:120度から5ノットの風
10-20時:040度から10ノットの風
20時-23日02時:風向不定5ノットの風

サイパン空港
TAF PGSN 221120Z 2212/2312 VRB06KT P6SM FEW025
     FM222200 03011KT P6SM VCSH SCT025 SCT040
マリアナ時間22日22時-23日08時:風向不定6ノットの風
08-22時:030度から11ノットの風

コメント